createdAt,value
2023-03-06T00:02:00.942Z,1.00
2023-03-06T00:06:04.798Z,1.00
2023-03-06T00:10:05.574Z,0.90
2023-03-06T00:14:06.152Z,0.90
2023-03-06T00:18:08.444Z,0.90
2023-03-06T00:22:16.606Z,0.90
2023-03-06T00:26:17.093Z,0.90
2023-03-06T00:30:21.561Z,0.80
2023-03-06T00:34:22.085Z,0.90
2023-03-06T00:38:27.752Z,0.80
2023-03-06T00:42:32.772Z,0.80
2023-03-06T00:46:33.445Z,0.80
2023-03-06T00:50:35.283Z,0.80
2023-03-06T00:54:38.518Z,0.80
2023-03-06T00:58:39.824Z,0.80
2023-03-06T01:02:40.440Z,0.70
2023-03-06T01:06:41.096Z,0.70
2023-03-06T01:10:44.771Z,0.70
2023-03-06T01:14:45.658Z,0.70
2023-03-06T01:18:46.220Z,0.70
2023-03-06T01:22:46.921Z,0.80
2023-03-06T01:26:50.313Z,0.80
2023-03-06T01:30:50.776Z,0.80
2023-03-06T01:34:52.013Z,0.80
2023-03-06T01:38:52.607Z,0.80
2023-03-06T01:42:55.804Z,0.70
2023-03-06T01:46:56.768Z,0.70
2023-03-06T01:50:58.397Z,0.70
2023-03-06T01:55:04.717Z,0.70
2023-03-06T01:59:10.199Z,0.70
2023-03-06T02:03:17.475Z,0.70
2023-03-06T02:07:22.661Z,0.70
2023-03-06T02:11:25.920Z,0.70
2023-03-06T02:15:31.087Z,0.70
2023-03-06T02:19:48.097Z,0.70
2023-03-06T02:24:04.571Z,0.60
2023-03-06T02:28:12.134Z,0.60
2023-03-06T02:32:13.782Z,0.60
2023-03-06T02:36:19.138Z,0.60
2023-03-06T02:40:23.869Z,0.60
2023-03-06T02:44:30.702Z,0.60
2023-03-06T02:48:32.252Z,0.60
2023-03-06T02:52:33.790Z,0.60
2023-03-06T02:56:35.882Z,0.60
2023-03-06T03:00:40.230Z,0.50
2023-03-06T03:04:43.023Z,0.50
2023-03-06T03:08:44.267Z,0.50
2023-03-06T03:12:46.392Z,0.50
2023-03-06T03:16:50.579Z,0.50
2023-03-06T03:20:51.246Z,0.50
2023-03-06T03:24:52.128Z,0.50
2023-03-06T03:28:52.987Z,0.40
2023-03-06T03:32:57.890Z,0.40
2023-03-06T03:36:59.374Z,0.40
2023-03-06T03:41:01.319Z,0.30
2023-03-06T03:45:02.108Z,0.30
2023-03-06T03:49:06.183Z,0.20
2023-03-06T03:53:07.130Z,0.20
2023-03-06T03:57:08.503Z,0.10
2023-03-06T04:01:13.108Z,0.10
2023-03-06T04:05:18.977Z,0.00
2023-03-06T04:09:20.555Z,-0.10
2023-03-06T04:13:22.490Z,-0.10
2023-03-06T04:17:23.614Z,-0.20
2023-03-06T04:21:28.502Z,-0.20
2023-03-06T04:25:28.998Z,-0.20
2023-03-06T04:29:29.490Z,-0.20
2023-03-06T04:33:30.670Z,-0.20
2023-03-06T04:37:35.287Z,-0.30
2023-03-06T04:41:38.185Z,-0.20
2023-03-06T04:45:39.209Z,-0.20
2023-03-06T04:49:40.068Z,-0.20
2023-03-06T04:53:43.138Z,-0.20
2023-03-06T04:57:46.404Z,-0.20
2023-03-06T05:01:47.026Z,-0.20
2023-03-06T05:05:47.880Z,-0.20
2023-03-06T05:09:51.328Z,-0.20
2023-03-06T05:13:52.654Z,-0.20
2023-03-06T05:17:53.058Z,-0.10
2023-03-06T05:21:53.674Z,-0.10
2023-03-06T05:25:57.176Z,-0.10
2023-03-06T05:29:58.380Z,-0.10
2023-03-06T05:34:00.865Z,-0.10
2023-03-06T05:38:01.205Z,-0.20
2023-03-06T05:42:04.605Z,-0.20
2023-03-06T05:46:06.548Z,-0.20
2023-03-06T05:50:10.610Z,-0.20
2023-03-06T05:54:11.515Z,-0.20
2023-03-06T05:58:14.604Z,-0.10
2023-03-06T06:02:15.371Z,-0.10
2023-03-06T06:06:17.969Z,-0.10
2023-03-06T06:10:18.361Z,0.00
2023-03-06T06:14:21.379Z,0.00
2023-03-06T06:18:21.980Z,0.10
2023-03-06T06:22:22.412Z,0.30
2023-03-06T06:26:23.026Z,0.30
2023-03-06T06:30:27.702Z,0.40
2023-03-06T06:34:28.671Z,0.50
2023-03-06T06:38:29.274Z,0.60
2023-03-06T06:42:36.313Z,0.70
2023-03-06T06:51:05.834Z,0.90
2023-03-06T06:55:06.414Z,1.00
2023-03-06T06:59:15.987Z,1.00
2023-03-06T07:03:20.105Z,1.10
2023-03-06T07:07:20.815Z,1.10
2023-03-06T07:11:21.870Z,1.20
2023-03-06T07:15:23.030Z,1.30
2023-03-06T07:19:26.441Z,1.50
2023-03-06T07:23:27.891Z,1.70
2023-03-06T07:27:28.579Z,2.00
2023-03-06T07:31:30.933Z,2.40
2023-03-06T07:35:34.104Z,2.70
2023-03-06T07:39:34.337Z,2.70
2023-03-06T07:43:35.307Z,2.80
2023-03-06T07:47:39.935Z,2.70
2023-03-06T07:51:43.123Z,2.70
2023-03-06T07:55:44.678Z,2.70
2023-03-06T07:59:45.227Z,2.70
2023-03-06T08:03:46.470Z,2.80
2023-03-06T08:07:49.627Z,2.80
2023-03-06T08:11:50.229Z,2.70
2023-03-06T08:15:53.835Z,2.70
2023-03-06T08:19:54.481Z,2.80
2023-03-06T08:23:58.122Z,3.00
2023-03-06T08:27:58.426Z,3.20
2023-03-06T08:31:59.157Z,3.30
2023-03-06T08:36:02.290Z,3.40
2023-03-06T08:40:07.129Z,3.20
2023-03-06T08:44:08.465Z,3.10
2023-03-06T08:48:10.771Z,3.10
2023-03-06T08:52:11.487Z,3.00
2023-03-06T08:56:19.575Z,3.10
2023-03-06T09:00:22.221Z,3.40
2023-03-06T09:04:23.094Z,3.60
2023-03-06T09:08:23.393Z,3.70
2023-03-06T09:12:27.236Z,3.80
2023-03-06T09:16:28.927Z,4.00
2023-03-06T09:20:29.432Z,4.00
2023-03-06T09:24:29.780Z,3.80
2023-03-06T09:28:32.797Z,3.90
2023-03-06T09:32:33.244Z,4.10
2023-03-06T09:36:42.896Z,4.20
2023-03-06T09:45:14.927Z,4.00
2023-03-06T09:49:56.308Z,4.20
2023-03-06T09:54:08.473Z,3.90
2023-03-06T09:58:20.117Z,4.20
2023-03-06T10:02:34.481Z,4.40
2023-03-06T10:06:44.300Z,4.40
2023-03-06T10:10:53.953Z,4.60
2023-03-06T10:15:14.594Z,4.50
2023-03-06T10:19:21.159Z,4.40
2023-03-06T10:23:49.932Z,4.50
2023-03-06T10:27:53.311Z,4.90
2023-03-06T10:32:07.154Z,5.00
2023-03-06T10:36:18.550Z,5.20
2023-03-06T10:40:37.811Z,5.50
2023-03-06T10:44:38.333Z,5.50
2023-03-06T10:48:42.342Z,5.20
2023-03-06T10:52:45.910Z,5.00
2023-03-06T10:56:49.149Z,4.90
2023-03-06T11:00:49.930Z,4.80
2023-03-06T11:04:55.919Z,4.50
2023-03-06T11:09:17.664Z,4.30
2023-03-06T11:13:28.065Z,4.40
2023-03-06T11:17:33.513Z,4.70
2023-03-06T11:21:36.038Z,5.40
2023-03-06T11:25:44.505Z,5.80
2023-03-06T11:29:49.146Z,5.80
2023-03-06T11:33:55.695Z,5.80
2023-03-06T11:38:01.042Z,5.30
2023-03-06T11:42:20.163Z,4.70
2023-03-06T11:46:28.525Z,3.90
2023-03-06T11:50:37.621Z,3.20
2023-03-06T11:54:39.199Z,2.90
2023-03-06T11:59:12.449Z,3.00
2023-03-06T12:03:57.902Z,3.50
2023-03-06T12:08:17.327Z,4.60
2023-03-06T12:12:48.691Z,5.40
2023-03-06T12:17:20.577Z,6.00
2023-03-06T12:21:37.052Z,5.20
2023-03-06T12:25:41.820Z,4.60
2023-03-06T12:30:28.438Z,4.20
2023-03-06T12:34:56.078Z,3.80
2023-03-06T12:39:12.055Z,3.80
2023-03-06T12:43:53.815Z,4.10
2023-03-06T12:47:59.552Z,4.30
2023-03-06T12:52:05.268Z,4.90
2023-03-06T12:56:06.980Z,4.90
2023-03-06T13:00:09.482Z,5.00
2023-03-06T13:04:38.563Z,5.00
2023-03-06T13:09:21.134Z,4.90
2023-03-06T13:13:36.122Z,4.50
2023-03-06T13:17:41.987Z,4.30
2023-03-06T13:22:18.221Z,4.30
2023-03-06T13:27:05.984Z,4.60
2023-03-06T13:31:10.614Z,4.70
2023-03-06T13:35:57.829Z,4.70
2023-03-06T13:40:34.296Z,5.00
2023-03-06T13:44:49.186Z,5.30
2023-03-06T13:49:05.386Z,5.30
2023-03-06T13:53:51.049Z,5.60
2023-03-06T13:58:14.551Z,5.60
2023-03-06T14:02:44.632Z,5.40
2023-03-06T14:07:06.534Z,5.40
2023-03-06T14:11:21.485Z,5.40
2023-03-06T14:15:28.439Z,5.40
2023-03-06T14:19:39.543Z,5.50
2023-03-06T14:23:42.719Z,5.10
2023-03-06T14:27:51.676Z,4.90
2023-03-06T14:31:55.949Z,4.80
2023-03-06T14:36:03.820Z,4.60
2023-03-06T14:40:05.241Z,4.40
2023-03-06T14:44:28.160Z,4.20
2023-03-06T14:48:42.150Z,3.70
2023-03-06T14:52:46.024Z,3.50
2023-03-06T14:56:49.482Z,3.50
2023-03-06T15:00:56.770Z,3.20
2023-03-06T15:05:04.576Z,3.10
2023-03-06T15:09:20.497Z,3.30
2023-03-06T15:13:26.241Z,3.50
2023-03-06T15:17:32.254Z,3.40
2023-03-06T15:21:39.985Z,3.20
2023-03-06T15:25:43.453Z,2.90
2023-03-06T15:29:44.003Z,2.80
2023-03-06T15:33:44.450Z,2.80
2023-03-06T15:37:46.042Z,2.80
2023-03-06T15:41:49.276Z,2.80
2023-03-06T15:45:50.854Z,2.80
2023-03-06T15:49:53.392Z,2.80
2023-03-06T15:53:57.208Z,2.60
2023-03-06T15:58:09.247Z,2.30
2023-03-06T16:02:20.449Z,2.10
2023-03-06T16:06:23.615Z,2.00
2023-03-06T16:10:26.869Z,2.00
2023-03-06T16:14:30.397Z,2.00
2023-03-06T16:18:31.759Z,2.00
2023-03-06T16:22:32.028Z,1.90
2023-03-06T16:26:36.782Z,1.90
2023-03-06T16:30:40.245Z,1.90
2023-03-06T16:34:44.360Z,2.00
2023-03-06T16:38:46.484Z,2.00
2023-03-06T16:42:46.955Z,2.00
2023-03-06T16:46:53.446Z,2.00
2023-03-06T16:50:54.528Z,1.90
2023-03-06T16:54:54.844Z,1.90
2023-03-06T16:58:55.435Z,1.90
2023-03-06T17:02:59.083Z,1.90
2023-03-06T17:06:59.853Z,1.90
2023-03-06T17:11:03.439Z,1.90
2023-03-06T17:15:03.796Z,1.80
2023-03-06T17:19:06.989Z,1.80
2023-03-06T17:23:07.546Z,1.80
2023-03-06T17:27:08.155Z,1.80
2023-03-06T17:31:16.911Z,1.90
2023-03-06T17:35:20.258Z,2.00
2023-03-06T17:39:21.078Z,2.00
2023-03-06T17:43:21.814Z,2.10
2023-03-06T17:47:22.610Z,2.10
2023-03-06T17:51:26.118Z,2.10
2023-03-06T17:55:27.414Z,2.10
2023-03-06T17:59:27.935Z,2.10
2023-03-06T18:03:28.900Z,2.10
2023-03-06T18:07:32.280Z,2.10
2023-03-06T18:11:32.857Z,2.20
2023-03-06T18:15:33.242Z,2.20
2023-03-06T18:19:33.975Z,2.10
2023-03-06T18:23:37.291Z,2.20
2023-03-06T18:27:38.411Z,2.10
2023-03-06T18:31:41.179Z,2.10
2023-03-06T18:35:44.276Z,2.10
2023-03-06T18:39:48.068Z,2.00
2023-03-06T18:43:54.193Z,2.00
2023-03-06T18:47:54.569Z,2.10
2023-03-06T18:51:55.046Z,2.10
2023-03-06T18:55:58.480Z,2.00
2023-03-06T18:59:59.460Z,2.00
2023-03-06T19:04:04.751Z,1.90
2023-03-06T19:08:05.220Z,1.90
2023-03-06T19:12:09.481Z,1.80
2023-03-06T19:16:11.755Z,1.80
2023-03-06T19:20:15.828Z,1.90
2023-03-06T19:24:16.628Z,1.80
2023-03-06T19:28:19.914Z,1.80
2023-03-06T19:32:20.396Z,1.80
2023-03-06T19:36:24.497Z,1.90
2023-03-06T19:40:25.054Z,1.90
2023-03-06T19:44:28.222Z,1.90
2023-03-06T19:48:29.052Z,1.90
2023-03-06T19:52:30.802Z,1.90
2023-03-06T19:56:33.805Z,1.80
2023-03-06T20:00:38.221Z,1.80
2023-03-06T20:04:41.232Z,1.80
2023-03-06T20:08:41.889Z,1.80
2023-03-06T20:12:42.556Z,1.80
2023-03-06T20:16:46.133Z,1.70
2023-03-06T20:20:46.640Z,1.70
2023-03-06T20:24:47.110Z,1.60
2023-03-06T20:28:47.630Z,1.60
2023-03-06T20:32:51.714Z,1.60
2023-03-06T20:36:52.106Z,1.60
2023-03-06T20:40:54.814Z,1.60
2023-03-06T20:44:55.203Z,1.60
2023-03-06T20:48:59.653Z,1.70
2023-03-06T20:53:01.034Z,1.60
2023-03-06T20:57:02.306Z,1.60
2023-03-06T21:01:02.904Z,1.60
2023-03-06T21:05:06.820Z,1.60
2023-03-06T21:09:09.955Z,1.60
2023-03-06T21:13:10.617Z,1.70
2023-03-06T21:17:12.290Z,1.60
2023-03-06T21:21:20.715Z,1.70
2023-03-06T21:25:21.650Z,1.60
2023-03-06T21:29:22.064Z,1.70
2023-03-06T21:33:22.748Z,1.70
2023-03-06T21:37:26.307Z,1.70
2023-03-06T21:41:30.658Z,1.70
2023-03-06T21:45:31.459Z,1.70
2023-03-06T21:49:32.098Z,1.70
2023-03-06T21:53:35.249Z,1.70
2023-03-06T21:57:39.266Z,1.70
2023-03-06T22:01:40.287Z,1.70
2023-03-06T22:05:43.403Z,1.70
2023-03-06T22:09:46.768Z,1.70
2023-03-06T22:13:48.536Z,1.70
2023-03-06T22:17:49.933Z,1.70
2023-03-06T22:21:50.315Z,1.70
2023-03-06T22:25:53.585Z,1.70
2023-03-06T22:29:54.022Z,1.70
2023-03-06T22:33:55.540Z,1.70
2023-03-06T22:37:56.234Z,1.60
2023-03-06T22:42:01.402Z,1.70
2023-03-06T22:46:05.193Z,1.60
2023-03-06T22:50:05.943Z,1.60
2023-03-06T22:54:06.499Z,1.70
2023-03-06T22:58:10.027Z,1.70
2023-03-06T23:02:10.877Z,1.70
2023-03-06T23:06:14.596Z,1.70
2023-03-06T23:10:15.248Z,1.70
2023-03-06T23:14:37.266Z,1.70
2023-03-06T23:18:59.629Z,1.70
2023-03-06T23:23:18.623Z,1.80
2023-03-06T23:27:19.732Z,1.70
2023-03-06T23:31:28.598Z,1.70
2023-03-06T23:35:29.447Z,1.80
2023-03-06T23:39:30.592Z,1.80
2023-03-06T23:43:31.746Z,1.70
2023-03-06T23:47:37.940Z,1.70
2023-03-06T23:51:38.286Z,1.70
2023-03-06T23:55:38.791Z,1.70
2023-03-06T23:59:39.662Z,1.70
